Albia, New York
Current Conditions -  °F | °C
As of 3:51 AM on Friday 28 Nov 2014 (Local Time) from KALB Reporting Station
Light Snow Light Snow  
Wind Chill: 28°   Ceiling: 1900
Heat Index: 28°   Visibility: 10mi
Dew Point: 25°   Wind: 0mph
Humidity: 88%   Direction: NA
Pressure: 30.06"   Gusts: NA
Location:  42.7478°N, 73.6049°W
Report Text: KALB 280851Z 00000KT 10SM -SN VCFG FEW006 BKN019 OVC033 M02/M04 A3006 RMK AO2 SLP183 VCFG NE-SE PCPN VRY LGT P0000 60000 T10221039 51008
Loading
Personal Weather Stations






























Interactive Weather Map New forecast layout! Learn more

10-Day Weather Forecast

Advertisements
Track Severe Weather on mobile